createdAt,value
2022-08-19T00:01:37.928Z,19.27
2022-08-19T00:04:10.026Z,19.20
2022-08-19T00:06:37.989Z,17.90
2022-08-19T00:09:07.951Z,18.67
2022-08-19T00:11:38.455Z,17.87
2022-08-19T00:14:07.053Z,18.43
2022-08-19T00:16:33.657Z,18.00
2022-08-19T00:19:00.117Z,18.10
2022-08-19T00:21:27.664Z,18.73
2022-08-19T00:23:55.641Z,18.77
2022-08-19T00:26:22.196Z,17.63
2022-08-19T00:28:48.766Z,17.40
2022-08-19T00:31:17.178Z,17.87
2022-08-19T00:33:44.234Z,18.10
2022-08-19T00:36:11.534Z,16.57
2022-08-19T00:38:41.909Z,18.70
2022-08-19T00:41:08.611Z,18.90
2022-08-19T00:43:35.622Z,16.90
2022-08-19T00:46:05.549Z,16.00
2022-08-19T00:48:33.463Z,18.43
2022-08-19T00:51:00.697Z,17.63
2022-08-19T00:53:29.533Z,17.20
2022-08-19T00:55:59.057Z,18.03
2022-08-19T00:58:29.873Z,17.30
2022-08-19T01:00:56.332Z,17.00
2022-08-19T01:03:23.207Z,16.73
2022-08-19T01:05:51.754Z,17.10
2022-08-19T01:08:20.204Z,17.87
2022-08-19T01:10:50.908Z,17.07
2022-08-19T01:13:20.886Z,17.10
2022-08-19T01:15:59.240Z,15.97
2022-08-19T01:18:27.458Z,17.93
2022-08-19T01:20:57.225Z,16.77
2022-08-19T01:23:43.290Z,16.73
2022-08-19T01:26:19.486Z,15.90
2022-08-19T01:28:49.012Z,14.97
2022-08-19T01:31:27.168Z,15.87
2022-08-19T01:33:57.562Z,17.23
2022-08-19T01:36:56.250Z,15.50
2022-08-19T01:39:25.826Z,16.63
2022-08-19T01:41:55.264Z,15.00
2022-08-19T01:44:24.781Z,16.17
2022-08-19T01:46:52.660Z,15.03
2022-08-19T01:49:21.946Z,16.43
2022-08-19T01:51:50.301Z,15.20
2022-08-19T01:54:23.315Z,14.67
2022-08-19T01:56:58.831Z,14.27
2022-08-19T01:59:25.463Z,15.00
2022-08-19T02:01:51.919Z,15.83
2022-08-19T02:04:18.443Z,15.33
2022-08-19T02:06:44.992Z,14.73
2022-08-19T02:09:11.518Z,15.67
2022-08-19T02:11:39.058Z,14.03
2022-08-19T02:14:07.996Z,13.83
2022-08-19T02:16:36.029Z,14.57
2022-08-19T02:19:03.009Z,14.33
2022-08-19T02:21:30.466Z,12.90
2022-08-19T02:23:57.876Z,14.30
2022-08-19T02:26:24.482Z,14.53
2022-08-19T02:28:50.960Z,14.33
2022-08-19T02:31:20.590Z,14.77
2022-08-19T02:33:48.281Z,13.43
2022-08-19T02:36:16.374Z,13.53
2022-08-19T02:38:55.161Z,13.77
2022-08-19T02:41:33.965Z,14.27
2022-08-19T02:44:26.477Z,14.20
2022-08-19T02:46:52.357Z,13.40
2022-08-19T02:49:20.103Z,14.70
2022-08-19T02:51:47.685Z,14.80
2022-08-19T02:54:14.798Z,15.40
2022-08-19T02:56:43.040Z,14.63
2022-08-19T02:59:11.081Z,13.97
2022-08-19T03:01:41.254Z,12.90
2022-08-19T03:04:10.679Z,14.70
2022-08-19T03:06:38.636Z,13.50
2022-08-19T03:09:05.189Z,12.73
2022-08-19T03:11:33.661Z,14.90
2022-08-19T03:14:01.139Z,13.13
2022-08-19T03:16:30.083Z,14.13
2022-08-19T03:19:01.466Z,13.30
2022-08-19T03:21:31.342Z,14.10
2022-08-19T03:24:01.455Z,14.27
2022-08-19T03:26:28.947Z,13.47
2022-08-19T03:28:58.304Z,14.00
2022-08-19T03:31:44.682Z,12.40
2022-08-19T03:34:33.487Z,13.27
2022-08-19T03:37:06.535Z,15.17
2022-08-19T03:39:33.475Z,14.00
2022-08-19T03:42:33.112Z,13.40
2022-08-19T03:44:49.792Z,13.40
2022-08-19T03:47:17.508Z,14.23
2022-08-19T03:49:44.352Z,13.20
2022-08-19T03:52:10.914Z,13.60
2022-08-19T03:54:39.243Z,14.07
2022-08-19T03:57:05.777Z,13.90
2022-08-19T03:59:36.243Z,13.70
2022-08-19T04:02:09.353Z,13.80
2022-08-19T04:04:37.349Z,13.27
2022-08-19T04:07:04.006Z,13.93
2022-08-19T04:09:30.493Z,12.97
2022-08-19T04:11:58.619Z,12.63
2022-08-19T04:14:29.822Z,13.63
2022-08-19T04:16:56.690Z,13.40
2022-08-19T04:19:24.264Z,13.63
2022-08-19T04:21:53.529Z,14.87
2022-08-19T04:24:20.881Z,13.20
2022-08-19T04:26:47.933Z,13.23
2022-08-19T04:29:22.920Z,13.23
2022-08-19T04:31:50.350Z,11.50
2022-08-19T04:34:23.130Z,13.47
2022-08-19T04:36:52.036Z,13.00
2022-08-19T04:39:22.498Z,12.90
2022-08-19T04:42:07.796Z,13.87
2022-08-19T04:44:36.434Z,14.17
2022-08-19T04:47:11.627Z,13.47
2022-08-19T04:49:38.442Z,13.50
2022-08-19T04:52:04.990Z,14.87
2022-08-19T04:54:38.715Z,13.80
2022-08-19T04:57:09.559Z,13.93
2022-08-19T04:59:37.932Z,14.70
2022-08-19T05:02:05.240Z,14.13
2022-08-19T05:04:32.821Z,13.27
2022-08-19T05:07:01.181Z,13.10
2022-08-19T05:09:28.378Z,13.33
2022-08-19T05:12:14.826Z,14.17
2022-08-19T05:14:41.249Z,14.20
2022-08-19T05:17:26.629Z,14.53
2022-08-19T05:20:13.064Z,13.37
2022-08-19T05:22:39.582Z,13.93
2022-08-19T05:25:13.083Z,12.60
2022-08-19T05:27:40.328Z,13.17
2022-08-19T05:30:07.423Z,14.20
2022-08-19T05:32:33.965Z,13.93
2022-08-19T05:35:00.561Z,14.10
2022-08-19T05:37:28.363Z,13.93
2022-08-19T05:39:55.706Z,14.40
2022-08-19T05:42:23.947Z,14.03
2022-08-19T05:44:51.401Z,15.40
2022-08-19T05:47:20.529Z,14.20
2022-08-19T05:49:47.432Z,13.80
2022-08-19T05:52:16.962Z,14.30
2022-08-19T05:54:46.376Z,15.17
2022-08-19T05:57:15.306Z,14.70
2022-08-19T05:59:42.942Z,14.37
2022-08-19T06:02:09.431Z,14.70
2022-08-19T06:04:35.866Z,14.50
2022-08-19T06:07:12.875Z,15.13
2022-08-19T06:09:40.555Z,15.93
2022-08-19T06:12:07.886Z,16.07
2022-08-19T06:14:40.269Z,16.97
2022-08-19T06:17:08.529Z,17.13
2022-08-19T06:19:34.976Z,17.73
2022-08-19T06:22:08.275Z,22.03
2022-08-19T06:24:36.171Z,19.20
2022-08-19T06:27:06.457Z,18.97
2022-08-19T06:29:33.434Z,20.20
2022-08-19T06:32:02.011Z,20.20
2022-08-19T06:34:30.776Z,21.20
2022-08-19T06:37:02.031Z,22.20
2022-08-19T06:39:32.532Z,22.90
2022-08-19T06:42:01.439Z,22.97
2022-08-19T06:44:33.366Z,23.97
2022-08-19T06:46:59.899Z,23.63
2022-08-19T06:49:28.598Z,24.40
2022-08-19T06:51:57.656Z,25.10
2022-08-19T06:54:24.185Z,25.30
2022-08-19T06:57:02.880Z,25.77
2022-08-19T06:59:32.761Z,25.27
2022-08-19T07:02:01.446Z,27.47
2022-08-19T07:04:34.694Z,25.77
2022-08-19T07:07:19.801Z,26.00
2022-08-19T07:09:57.761Z,25.87
2022-08-19T07:12:30.536Z,27.17
2022-08-19T07:14:58.618Z,28.20
2022-08-19T07:17:25.182Z,27.37
2022-08-19T07:19:51.848Z,26.77
2022-08-19T07:22:24.443Z,27.00
2022-08-19T07:24:52.117Z,27.87
2022-08-19T07:27:25.135Z,24.97
2022-08-19T07:29:57.658Z,28.33
2022-08-19T07:32:30.245Z,28.57
2022-08-19T07:34:57.030Z,28.00
2022-08-19T07:37:32.452Z,33.90
2022-08-19T07:39:59.629Z,29.67
2022-08-19T07:42:26.504Z,30.97
2022-08-19T07:44:52.935Z,27.87
2022-08-19T07:47:49.242Z,28.57
2022-08-19T07:50:08.920Z,27.00
2022-08-19T07:52:36.829Z,27.57
2022-08-19T07:55:04.905Z,27.33
2022-08-19T07:57:31.695Z,28.23
2022-08-19T07:59:58.252Z,23.97
2022-08-19T08:02:24.713Z,27.20
2022-08-19T08:05:09.884Z,25.20
2022-08-19T08:07:54.745Z,25.73
2022-08-19T08:10:21.647Z,25.00
2022-08-19T08:13:08.866Z,21.50
2022-08-19T08:15:42.077Z,20.60
2022-08-19T08:18:10.263Z,21.23
2022-08-19T08:20:36.749Z,19.77
2022-08-19T08:23:21.898Z,19.83
2022-08-19T08:25:49.821Z,19.80
2022-08-19T08:28:18.298Z,18.37
2022-08-19T08:30:46.763Z,22.20
2022-08-19T08:35:43.190Z,19.10
2022-08-19T08:38:09.625Z,17.90
2022-08-19T08:40:47.173Z,17.33
2022-08-19T08:43:36.261Z,17.50
2022-08-19T08:46:30.548Z,15.63
2022-08-19T08:49:01.948Z,17.77
2022-08-19T08:51:35.264Z,15.97
2022-08-19T08:54:07.597Z,16.30
2022-08-19T08:56:38.458Z,14.57
2022-08-19T08:59:22.797Z,13.40
2022-08-19T09:01:49.614Z,15.10
2022-08-19T09:04:16.892Z,15.10
2022-08-19T09:07:18.479Z,15.07
2022-08-19T09:10:12.536Z,12.40
2022-08-19T09:13:09.480Z,13.77
2022-08-19T09:15:41.527Z,15.60
2022-08-19T09:18:09.495Z,13.87
2022-08-19T09:20:42.987Z,16.17
2022-08-19T09:23:11.721Z,13.90
2022-08-19T09:25:38.498Z,16.70
2022-08-19T09:28:05.743Z,17.13
2022-08-19T09:30:42.773Z,16.23
2022-08-19T09:33:09.246Z,15.00
2022-08-19T09:35:49.560Z,16.03
2022-08-19T09:38:19.507Z,14.30
2022-08-19T09:40:45.980Z,14.87
2022-08-19T09:43:13.299Z,16.50
2022-08-19T09:45:40.838Z,15.23
2022-08-19T09:48:07.328Z,15.70
2022-08-19T09:50:39.339Z,17.27
2022-08-19T09:53:18.480Z,18.23
2022-08-19T09:55:45.172Z,15.63
2022-08-19T09:58:11.660Z,20.67
2022-08-19T10:00:39.305Z,19.37
2022-08-19T10:03:05.765Z,17.90
2022-08-19T10:05:55.329Z,17.00
2022-08-19T10:08:35.140Z,15.23
2022-08-19T10:11:28.621Z,17.47
2022-08-19T10:13:49.726Z,15.40
2022-08-19T10:16:28.581Z,14.40
2022-08-19T10:18:59.013Z,14.73
2022-08-19T10:21:32.217Z,14.00
2022-08-19T10:24:02.619Z,15.60
2022-08-19T10:26:32.356Z,13.90
2022-08-19T10:28:59.174Z,14.70
2022-08-19T10:31:59.775Z,14.67
2022-08-19T10:34:27.488Z,13.60
2022-08-19T10:36:56.488Z,15.07
2022-08-19T10:39:30.768Z,14.90
2022-08-19T10:41:57.835Z,15.47
2022-08-19T10:44:24.990Z,14.77
2022-08-19T10:47:00.074Z,16.27
2022-08-19T10:49:28.194Z,17.03
2022-08-19T10:52:18.783Z,15.60
2022-08-19T10:55:08.458Z,14.87
2022-08-19T10:57:59.340Z,15.50
2022-08-19T11:00:24.145Z,13.50
2022-08-19T11:02:51.699Z,15.13
2022-08-19T11:05:19.279Z,16.33
2022-08-19T11:07:46.108Z,16.23
2022-08-19T11:10:19.457Z,16.70
2022-08-19T11:12:48.050Z,15.47
2022-08-19T11:15:14.563Z,15.23
2022-08-19T11:17:44.376Z,15.13
2022-08-19T11:20:13.190Z,15.23
2022-08-19T11:22:41.846Z,13.50
2022-08-19T11:25:10.905Z,13.80
2022-08-19T11:27:45.365Z,14.27
2022-08-19T11:30:13.848Z,25.97
2022-08-19T11:32:47.061Z,15.97
2022-08-19T11:35:16.838Z,13.80
2022-08-19T11:37:43.291Z,14.67
2022-08-19T11:40:10.454Z,13.23
2022-08-19T11:42:55.419Z,14.80
2022-08-19T11:45:22.682Z,12.77
2022-08-19T11:47:49.402Z,11.77
2022-08-19T11:50:17.165Z,12.43
2022-08-19T11:52:46.131Z,11.33
2022-08-19T11:55:14.273Z,13.53
2022-08-19T11:57:42.138Z,10.23
2022-08-19T12:00:10.194Z,12.27
2022-08-19T12:02:37.108Z,12.27
2022-08-19T12:05:04.974Z,13.60
2022-08-19T12:07:34.936Z,13.73
2022-08-19T12:10:01.559Z,12.93
2022-08-19T12:12:30.136Z,12.30
2022-08-19T12:14:59.120Z,11.10
2022-08-19T12:17:27.316Z,8.40
2022-08-19T12:19:54.599Z,11.37
2022-08-19T12:22:21.694Z,10.50
2022-08-19T12:24:51.098Z,11.17
2022-08-19T12:27:23.886Z,10.80
2022-08-19T12:30:06.493Z,9.40
2022-08-19T12:32:33.033Z,8.47
2022-08-19T12:34:59.464Z,9.77
2022-08-19T12:37:25.942Z,9.90
2022-08-19T12:39:52.443Z,8.93
2022-08-19T12:42:19.620Z,8.93
2022-08-19T12:44:46.129Z,9.63
2022-08-19T12:47:15.386Z,8.70
2022-08-19T12:49:52.677Z,8.10
2022-08-19T12:52:25.516Z,8.33
2022-08-19T12:54:54.273Z,8.87
2022-08-19T12:57:22.219Z,7.43
2022-08-19T12:59:54.529Z,8.70
2022-08-19T13:02:22.265Z,8.20
2022-08-19T13:04:48.731Z,9.07
2022-08-19T13:07:15.504Z,9.27
2022-08-19T13:09:43.460Z,8.90
2022-08-19T13:12:13.790Z,8.73
2022-08-19T13:14:41.914Z,10.00
2022-08-19T13:17:09.238Z,10.07
2022-08-19T13:19:37.748Z,9.20
2022-08-19T13:22:04.356Z,9.30
2022-08-19T13:24:34.127Z,10.37
2022-08-19T13:27:03.564Z,10.90
2022-08-19T13:29:48.551Z,10.53
2022-08-19T13:32:33.373Z,10.90
2022-08-19T13:34:59.801Z,10.27
2022-08-19T13:37:44.213Z,10.70
2022-08-19T13:40:20.908Z,11.30
2022-08-19T13:42:50.109Z,10.60
2022-08-19T13:45:20.552Z,10.20
2022-08-19T13:47:48.869Z,9.20
2022-08-19T13:50:19.504Z,12.10
2022-08-19T13:52:46.770Z,11.30
2022-08-19T13:55:13.374Z,10.70
2022-08-19T13:57:39.952Z,10.43
2022-08-19T14:00:13.337Z,12.90
2022-08-19T14:02:40.565Z,11.80
2022-08-19T14:05:09.577Z,13.10
2022-08-19T14:07:36.943Z,13.90
2022-08-19T14:10:07.150Z,12.33
2022-08-19T14:12:34.001Z,12.90
2022-08-19T14:15:01.385Z,13.10
2022-08-19T14:17:28.607Z,11.73
2022-08-19T14:20:10.829Z,11.17
2022-08-19T14:22:40.585Z,12.73
2022-08-19T14:25:09.850Z,11.93
2022-08-19T14:27:37.907Z,11.40
2022-08-19T14:30:09.226Z,10.60
2022-08-19T14:32:35.868Z,10.97
2022-08-19T14:35:03.117Z,11.93
2022-08-19T14:37:29.900Z,9.60
2022-08-19T14:39:56.682Z,9.13
2022-08-19T14:42:23.239Z,8.60
2022-08-19T14:44:49.713Z,8.57
2022-08-19T14:47:16.148Z,8.40
2022-08-19T14:49:45.750Z,8.50
2022-08-19T14:52:14.986Z,8.17
2022-08-19T14:54:41.377Z,7.20
2022-08-19T14:57:08.188Z,7.90
2022-08-19T14:59:35.931Z,7.70
2022-08-19T15:02:33.575Z,6.43
2022-08-19T15:04:58.044Z,6.40
2022-08-19T15:07:28.861Z,7.87
2022-08-19T15:09:56.277Z,7.80
2022-08-19T15:12:23.479Z,7.67
2022-08-19T15:14:51.907Z,8.27
2022-08-19T15:17:25.836Z,7.40
2022-08-19T15:20:11.191Z,8.10
2022-08-19T15:22:37.789Z,8.37
2022-08-19T15:25:06.241Z,9.10
2022-08-19T15:27:32.985Z,9.23
2022-08-19T15:30:01.557Z,8.80
2022-08-19T15:32:29.038Z,9.13
2022-08-19T15:34:55.760Z,9.40
2022-08-19T15:37:25.206Z,9.70
2022-08-19T15:39:52.141Z,9.13
2022-08-19T15:42:28.093Z,9.40
2022-08-19T15:44:56.827Z,8.23
2022-08-19T15:47:34.846Z,9.80
2022-08-19T15:50:15.856Z,9.10
2022-08-19T15:52:51.487Z,8.97
2022-08-19T15:55:32.638Z,9.13
2022-08-19T15:58:28.548Z,10.40
2022-08-19T16:01:20.405Z,9.70
2022-08-19T16:04:14.199Z,9.40
2022-08-19T16:06:51.706Z,10.00
2022-08-19T16:09:24.947Z,9.43
2022-08-19T16:11:56.736Z,8.07
2022-08-19T16:14:24.340Z,8.90
2022-08-19T16:16:51.363Z,8.60
2022-08-19T16:19:20.163Z,8.37
2022-08-19T16:21:52.427Z,7.70
2022-08-19T16:24:21.557Z,7.23
2022-08-19T16:26:49.153Z,6.67
2022-08-19T16:29:34.001Z,6.10
2022-08-19T16:32:05.842Z,6.47
2022-08-19T16:34:33.737Z,5.43
2022-08-19T16:37:00.547Z,5.20
2022-08-19T16:39:26.983Z,5.10
2022-08-19T16:41:53.722Z,4.70
2022-08-19T16:44:20.903Z,4.10
2022-08-19T16:46:57.309Z,4.23
2022-08-19T16:49:53.589Z,4.43
2022-08-19T16:52:18.483Z,3.50
2022-08-19T16:54:45.283Z,4.70
2022-08-19T16:57:12.528Z,3.43
2022-08-19T16:59:43.844Z,3.80
2022-08-19T17:02:16.590Z,4.00
2022-08-19T17:04:43.009Z,3.20
2022-08-19T17:07:10.526Z,3.80
2022-08-19T17:09:37.982Z,3.97
2022-08-19T17:12:05.101Z,3.40
2022-08-19T17:14:31.550Z,2.90
2022-08-19T17:16:57.985Z,3.50
2022-08-19T17:19:24.383Z,3.43
2022-08-19T17:21:51.052Z,3.30
2022-08-19T17:24:17.585Z,2.83
2022-08-19T17:26:43.990Z,3.60
2022-08-19T17:29:10.417Z,3.40
2022-08-19T17:31:36.928Z,3.77
2022-08-19T17:34:03.686Z,3.53
2022-08-19T17:36:32.579Z,3.03
2022-08-19T17:39:01.278Z,2.63
2022-08-19T17:41:28.629Z,2.93
2022-08-19T17:43:55.309Z,2.77
2022-08-19T17:46:22.149Z,2.87
2022-08-19T17:48:52.737Z,2.80
2022-08-19T17:51:22.536Z,3.13
2022-08-19T17:53:50.949Z,3.00
2022-08-19T17:56:18.394Z,3.17
2022-08-19T17:58:51.152Z,2.53
2022-08-19T18:01:29.526Z,3.43
2022-08-19T18:04:10.824Z,2.97
2022-08-19T18:06:37.981Z,2.87
2022-08-19T18:09:05.922Z,2.20
2022-08-19T18:11:33.197Z,2.37
2022-08-19T18:14:00.211Z,2.43
2022-08-19T18:16:26.659Z,2.73
2022-08-19T18:18:54.629Z,2.53
2022-08-19T18:21:21.504Z,2.80
2022-08-19T18:23:48.111Z,2.83
2022-08-19T18:26:14.904Z,2.90
2022-08-19T18:28:43.850Z,3.00
2022-08-19T18:31:17.320Z,2.90
2022-08-19T18:33:44.855Z,2.90
2022-08-19T18:36:11.934Z,2.50
2022-08-19T18:39:06.336Z,2.60
2022-08-19T18:41:53.416Z,2.70
2022-08-19T18:44:38.284Z,2.30
2022-08-19T18:47:23.051Z,2.77
2022-08-19T18:49:51.019Z,2.97
2022-08-19T18:52:25.341Z,2.90
2022-08-19T18:54:52.335Z,3.20
2022-08-19T18:57:24.787Z,2.30
2022-08-19T18:59:53.735Z,2.70
2022-08-19T19:02:22.257Z,2.90
2022-08-19T19:04:49.100Z,2.80
2022-08-19T19:07:18.217Z,3.30
2022-08-19T19:09:51.723Z,2.50
2022-08-19T19:12:18.280Z,2.80
2022-08-19T19:14:49.547Z,2.83
2022-08-19T19:17:16.769Z,3.27
2022-08-19T19:19:44.292Z,2.53
2022-08-19T19:22:14.936Z,3.17
2022-08-19T19:24:44.996Z,2.63
2022-08-19T19:27:13.139Z,2.70
2022-08-19T19:29:40.927Z,2.90
2022-08-19T19:32:10.782Z,2.97
2022-08-19T19:34:39.201Z,2.83
2022-08-19T19:37:06.177Z,3.00
2022-08-19T19:39:45.851Z,2.77
2022-08-19T19:42:19.937Z,3.57
2022-08-19T19:44:48.838Z,2.80
2022-08-19T19:47:17.453Z,2.70
2022-08-19T19:52:38.225Z,3.00
2022-08-19T19:55:05.209Z,2.63
2022-08-19T19:57:31.705Z,3.03
2022-08-19T19:59:58.721Z,5.07
2022-08-19T20:02:25.772Z,8.37
2022-08-19T20:04:53.979Z,6.37
2022-08-19T20:07:40.446Z,6.13
2022-08-19T20:10:07.093Z,5.10
2022-08-19T20:12:33.559Z,3.97
2022-08-19T20:15:00.031Z,3.70
2022-08-19T20:17:26.488Z,3.40
2022-08-19T20:19:53.643Z,3.23
2022-08-19T20:22:20.062Z,3.13
2022-08-19T20:24:47.024Z,3.17
2022-08-19T20:27:13.435Z,3.27
2022-08-19T20:29:44.225Z,2.67
2022-08-19T20:32:11.221Z,3.33
2022-08-19T20:34:39.322Z,2.73
2022-08-19T20:37:07.705Z,3.40
2022-08-19T20:39:34.228Z,3.30
2022-08-19T20:42:00.700Z,3.37
2022-08-19T20:44:27.113Z,3.00
2022-08-19T20:46:55.281Z,3.07
2022-08-19T20:49:27.009Z,3.17
2022-08-19T20:51:54.828Z,2.70
2022-08-19T20:54:21.561Z,3.40
2022-08-19T20:56:48.035Z,3.43
2022-08-19T20:59:14.518Z,3.97
2022-08-19T21:01:40.961Z,3.90
2022-08-19T21:04:07.449Z,3.40
2022-08-19T21:06:34.078Z,3.23
2022-08-19T21:09:00.484Z,3.43
2022-08-19T21:11:27.048Z,3.37
2022-08-19T21:13:53.717Z,3.23
2022-08-19T21:16:20.216Z,3.50
2022-08-19T21:18:46.659Z,3.20
2022-08-19T21:21:13.169Z,2.90
2022-08-19T21:23:40.194Z,3.03
2022-08-19T21:26:06.736Z,3.40
2022-08-19T21:28:36.138Z,3.67
2022-08-19T21:31:05.305Z,3.10
2022-08-19T21:33:32.817Z,3.07
2022-08-19T21:36:00.242Z,3.23
2022-08-19T21:38:27.119Z,2.90
2022-08-19T21:40:53.745Z,3.50
2022-08-19T21:43:20.199Z,3.03
2022-08-19T21:45:47.573Z,3.40
2022-08-19T21:48:14.602Z,3.40
2022-08-19T21:50:42.654Z,2.83
2022-08-19T21:53:15.682Z,3.03
2022-08-19T21:55:46.614Z,3.10
2022-08-19T21:58:20.001Z,2.63
2022-08-19T22:00:55.770Z,2.70
2022-08-19T22:03:22.889Z,2.10
2022-08-19T22:05:49.526Z,1.67
2022-08-19T22:08:15.959Z,2.13
2022-08-19T22:10:42.427Z,2.20
2022-08-19T22:13:09.492Z,1.80
2022-08-19T22:15:36.065Z,1.70
2022-08-19T22:18:02.710Z,1.50
2022-08-19T22:20:31.500Z,2.13
2022-08-19T22:23:02.045Z,1.70
2022-08-19T22:25:35.969Z,1.50
2022-08-19T22:28:06.372Z,1.60
2022-08-19T22:30:34.693Z,1.27
2022-08-19T22:33:06.574Z,0.90
2022-08-19T22:35:35.734Z,1.27
2022-08-19T22:38:06.250Z,1.10
2022-08-19T22:40:34.216Z,1.77
2022-08-19T22:43:03.420Z,1.30
2022-08-19T22:45:30.920Z,1.50
2022-08-19T22:47:58.013Z,1.10
2022-08-19T22:50:24.558Z,6.50
2022-08-19T22:52:57.802Z,3.00
2022-08-19T22:55:27.674Z,3.40
2022-08-19T22:57:54.594Z,3.03
2022-08-19T23:00:24.242Z,1.90
2022-08-19T23:02:52.055Z,2.50
2022-08-19T23:05:22.163Z,1.40
2022-08-19T23:07:52.395Z,1.50
2022-08-19T23:10:27.164Z,1.23
2022-08-19T23:12:59.041Z,1.43
2022-08-19T23:15:30.694Z,1.37
2022-08-19T23:18:00.192Z,1.70
2022-08-19T23:20:29.937Z,1.57
2022-08-19T23:22:57.494Z,1.17
2022-08-19T23:25:27.153Z,1.50
2022-08-19T23:28:12.731Z,1.70
2022-08-19T23:30:44.911Z,1.77
2022-08-19T23:33:16.170Z,1.70
2022-08-19T23:35:42.588Z,1.50
2022-08-19T23:38:09.873Z,1.70
2022-08-19T23:40:38.430Z,1.57
2022-08-19T23:43:08.097Z,2.07
2022-08-19T23:45:39.017Z,1.90
2022-08-19T23:48:06.896Z,1.80
2022-08-19T23:50:34.238Z,1.70
2022-08-19T23:53:01.560Z,1.90
2022-08-19T23:55:32.771Z,2.37
2022-08-19T23:57:59.786Z,2.40
